createdAt,value
2018-08-06T00:00:22.549Z,98619.20
2018-08-06T00:02:51.085Z,98619.94
2018-08-06T00:05:19.597Z,98619.50
2018-08-06T00:07:48.453Z,98612.04
2018-08-06T00:10:20.737Z,98610.67
2018-08-06T00:12:49.271Z,98606.58
2018-08-06T00:15:17.729Z,98612.91
2018-08-06T00:17:46.294Z,98607.84
2018-08-06T00:20:15.577Z,98609.34
2018-08-06T00:22:44.342Z,98606.91
2018-08-06T00:25:14.277Z,98612.27
2018-08-06T00:27:43.356Z,98610.16
2018-08-06T00:30:13.593Z,98606.41
2018-08-06T00:32:43.081Z,98611.96
2018-08-06T00:35:12.617Z,98605.56
2018-08-06T00:37:41.374Z,98604.93
2018-08-06T00:40:15.125Z,98599.80
2018-08-06T00:42:44.386Z,98598.63
2018-08-06T00:45:15.955Z,98594.66
2018-08-06T00:47:45.072Z,98598.42
2018-08-06T00:50:13.810Z,98595.08
2018-08-06T00:52:42.254Z,98592.75
2018-08-06T00:55:14.388Z,98586.35
2018-08-06T00:57:43.161Z,98590.97
2018-08-06T01:00:14.217Z,98591.15
2018-08-06T01:02:42.993Z,98592.52
2018-08-06T01:05:13.102Z,98583.41
2018-08-06T01:07:42.134Z,98581.19
2018-08-06T01:10:16.269Z,98582.64
2018-08-06T01:12:44.792Z,98582.23
2018-08-06T01:15:15.061Z,98580.14
2018-08-06T01:17:43.610Z,98580.75
2018-08-06T01:20:13.329Z,98574.66
2018-08-06T01:22:42.822Z,98572.55
2018-08-06T01:25:12.245Z,98577.70
2018-08-06T01:27:40.805Z,98572.75
2018-08-06T01:30:11.607Z,98573.67
2018-08-06T01:32:40.070Z,98570.53
2018-08-06T01:35:10.576Z,98567.17
2018-08-06T01:37:39.133Z,98568.31
2018-08-06T01:40:10.805Z,98563.99
2018-08-06T01:42:39.682Z,98568.84
2018-08-06T01:45:08.824Z,98567.25
2018-08-06T01:47:37.996Z,98565.89
2018-08-06T01:50:07.385Z,98563.21
2018-08-06T01:52:35.895Z,98557.53
2018-08-06T01:55:04.746Z,98560.56
2018-08-06T01:57:33.173Z,98556.59
2018-08-06T02:00:01.623Z,98559.95
2018-08-06T02:02:30.225Z,98566.63
2018-08-06T02:04:58.648Z,98562.50
2018-08-06T02:07:27.123Z,98560.52
2018-08-06T02:09:55.961Z,98560.52
2018-08-06T02:12:24.477Z,98561.55
2018-08-06T02:14:52.953Z,98555.68
2018-08-06T02:17:21.513Z,98550.07
2018-08-06T02:19:49.989Z,98557.83
2018-08-06T02:22:18.521Z,98554.34
2018-08-06T02:24:46.998Z,98554.75
2018-08-06T02:27:15.510Z,98558.00
2018-08-06T02:29:44.039Z,98555.47
2018-08-06T02:32:12.753Z,98553.39
2018-08-06T02:34:41.209Z,98554.34
2018-08-06T02:37:09.996Z,98555.66
2018-08-06T02:39:38.485Z,98550.91
2018-08-06T02:42:07.047Z,98551.73
2018-08-06T02:44:35.553Z,98548.65
2018-08-06T02:47:04.069Z,98553.30
2018-08-06T02:49:32.513Z,98554.73
2018-08-06T02:52:01.050Z,98560.30
2018-08-06T02:54:29.529Z,98558.74
2018-08-06T02:56:57.969Z,98558.09
2018-08-06T02:59:26.490Z,98559.16
2018-08-06T03:01:54.933Z,98557.42
2018-08-06T03:04:23.386Z,98561.27
2018-08-06T03:06:51.912Z,98558.48
2018-08-06T03:09:20.348Z,98562.91
2018-08-06T03:11:48.858Z,98560.25
2018-08-06T03:14:17.353Z,98564.61
2018-08-06T03:16:45.894Z,98565.45
2018-08-06T03:19:14.297Z,98565.20
2018-08-06T03:21:42.809Z,98565.48
2018-08-06T03:24:11.769Z,98559.01
2018-08-06T03:26:40.173Z,98553.72
2018-08-06T03:29:08.765Z,98552.11
2018-08-06T03:31:37.254Z,98554.97
2018-08-06T03:34:05.774Z,98546.70
2018-08-06T03:39:00.098Z,98551.18
2018-08-06T03:41:28.632Z,98554.17
2018-08-06T03:43:57.149Z,98556.28
2018-08-06T03:46:25.657Z,98558.48
2018-08-06T03:48:54.407Z,98552.73
2018-08-06T03:51:22.963Z,98549.44
2018-08-06T03:53:51.447Z,98552.81
2018-08-06T03:56:20.665Z,98549.56
2018-08-06T03:58:50.226Z,98545.75
2018-08-06T04:01:18.738Z,98550.45
2018-08-06T04:03:47.229Z,98555.19
2018-08-06T04:06:16.027Z,98550.09
2018-08-06T04:08:44.625Z,98551.50
2018-08-06T04:11:13.389Z,98552.73
2018-08-06T04:13:42.326Z,98553.13
2018-08-06T04:16:11.441Z,98549.18
2018-08-06T04:18:39.902Z,98548.39
2018-08-06T04:21:08.521Z,98553.49
2018-08-06T04:23:37.077Z,98561.47
2018-08-06T04:26:05.900Z,98563.34
2018-08-06T04:28:34.492Z,98560.55
2018-08-06T04:31:02.926Z,98560.50
2018-08-06T04:33:31.506Z,98557.08
2018-08-06T04:35:59.978Z,98562.69
2018-08-06T04:38:28.560Z,98564.19
2018-08-06T04:40:57.048Z,98570.27
2018-08-06T04:43:25.529Z,98570.92
2018-08-06T04:45:54.088Z,98572.98
2018-08-06T04:48:22.517Z,98577.45
2018-08-06T04:50:51.013Z,98585.59
2018-08-06T04:53:19.446Z,98584.80
2018-08-06T04:55:47.982Z,98579.95
2018-08-06T04:58:16.950Z,98575.39
2018-08-06T05:00:45.485Z,98576.30
2018-08-06T05:03:14.002Z,98580.23
2018-08-06T05:05:42.488Z,98581.53
2018-08-06T05:08:11.373Z,98576.92
2018-08-06T05:10:39.870Z,98577.57
2018-08-06T05:13:08.611Z,98584.09
2018-08-06T05:15:37.179Z,98573.86
2018-08-06T05:18:05.873Z,98581.87
2018-08-06T05:20:34.310Z,98584.53
2018-08-06T05:23:02.710Z,98579.39
2018-08-06T05:25:31.190Z,98578.61
2018-08-06T05:27:59.630Z,98585.14
2018-08-06T05:30:28.138Z,98584.05
2018-08-06T05:32:56.620Z,98590.87
2018-08-06T05:35:25.055Z,98592.77
2018-08-06T05:37:53.554Z,98597.22
2018-08-06T05:40:22.077Z,98605.03
2018-08-06T05:42:50.578Z,98598.88
2018-08-06T05:45:19.017Z,98603.44
2018-08-06T05:47:47.512Z,98604.14
2018-08-06T05:50:15.996Z,98606.68
2018-08-06T05:52:44.497Z,98607.33
2018-08-06T05:55:13.126Z,98606.91
2018-08-06T05:57:42.493Z,98610.54
2018-08-06T06:00:16.653Z,98609.52
2018-08-06T06:02:45.936Z,98610.69
2018-08-06T06:05:14.487Z,98614.81
2018-08-06T06:07:43.437Z,98614.64
2018-08-06T06:10:14.369Z,98617.58
2018-08-06T06:12:42.973Z,98615.84
2018-08-06T06:15:14.395Z,98627.42
2018-08-06T06:17:43.873Z,98630.14
2018-08-06T06:20:12.698Z,98628.27
2018-08-06T06:22:41.177Z,98626.45
2018-08-06T06:25:11.972Z,98628.45
2018-08-06T06:27:40.474Z,98627.37
2018-08-06T06:30:12.489Z,98629.90
2018-08-06T06:32:40.957Z,98629.46
2018-08-06T06:35:10.006Z,98621.84
2018-08-06T06:37:38.669Z,98617.09
2018-08-06T06:40:07.145Z,98618.92
2018-08-06T06:42:35.574Z,98614.98
2018-08-06T06:45:04.881Z,98609.87
2018-08-06T06:47:33.370Z,98610.22
2018-08-06T06:50:01.913Z,98616.39
2018-08-06T06:52:30.330Z,98615.48
2018-08-06T06:54:58.836Z,98615.72
2018-08-06T06:57:27.297Z,98609.50
2018-08-06T06:59:55.837Z,98605.70
2018-08-06T07:02:24.258Z,98612.38
2018-08-06T07:04:53.109Z,98613.20
2018-08-06T07:07:21.541Z,98609.89
2018-08-06T07:09:50.489Z,98614.28
2018-08-06T07:12:19.021Z,98617.02
2018-08-06T07:14:47.482Z,98615.94
2018-08-06T07:17:15.997Z,98613.00
2018-08-06T07:19:44.480Z,98611.47
2018-08-06T07:22:13.390Z,98610.59
2018-08-06T07:24:41.874Z,98609.97
2018-08-06T07:27:10.834Z,98610.75
2018-08-06T07:29:39.321Z,98603.93
2018-08-06T07:32:07.953Z,98611.41
2018-08-06T07:34:36.445Z,98614.19
2018-08-06T07:37:05.369Z,98607.39
2018-08-06T07:39:33.814Z,98606.63
2018-08-06T07:42:02.381Z,98607.32
2018-08-06T07:44:30.890Z,98606.38
2018-08-06T07:46:59.497Z,98606.13
2018-08-06T07:49:28.005Z,98609.25
2018-08-06T07:51:56.494Z,98605.14
2018-08-06T07:54:24.939Z,98606.20
2018-08-06T07:56:53.469Z,98602.80
2018-08-06T07:59:21.978Z,98603.69
2018-08-06T08:01:50.636Z,98597.66
2018-08-06T08:04:19.449Z,98601.30
2018-08-06T08:06:47.937Z,98597.72
2018-08-06T08:09:16.477Z,98596.01
2018-08-06T08:11:44.975Z,98588.59
2018-08-06T08:14:13.475Z,98595.57
2018-08-06T08:16:42.039Z,98582.87
2018-08-06T08:19:11.139Z,98578.34
2018-08-06T08:21:39.638Z,98580.65
2018-08-06T08:24:08.264Z,98583.30
2018-08-06T08:26:36.787Z,98577.02
2018-08-06T08:29:05.395Z,98583.96
2018-08-06T08:31:33.914Z,98579.29
2018-08-06T08:34:02.469Z,98580.55
2018-08-06T08:36:31.041Z,98576.16
2018-08-06T08:38:59.571Z,98579.30
2018-08-06T08:41:28.042Z,98578.96
2018-08-06T08:43:56.566Z,98572.78
2018-08-06T08:46:25.026Z,98568.81
2018-08-06T08:48:53.477Z,98567.63
2018-08-06T08:51:21.981Z,98563.20
2018-08-06T08:53:50.481Z,98567.11
2018-08-06T08:56:18.924Z,98569.97
2018-08-06T08:58:47.491Z,98571.19
2018-08-06T09:01:15.882Z,98567.88
2018-08-06T09:03:44.386Z,98564.62
2018-08-06T09:06:13.155Z,98564.86
2018-08-06T09:08:41.686Z,98556.29
2018-08-06T09:11:11.541Z,98565.45
2018-08-06T09:13:39.988Z,98561.83
2018-08-06T09:16:08.577Z,98554.86
2018-08-06T09:18:37.141Z,98555.42
2018-08-06T09:21:05.638Z,98555.99
2018-08-06T09:23:34.190Z,98556.16
2018-08-06T09:26:02.682Z,98554.36
2018-08-06T09:28:31.255Z,98552.29
2018-08-06T09:30:59.697Z,98551.77
2018-08-06T09:33:28.312Z,98546.02
2018-08-06T09:35:56.764Z,98548.11
2018-08-06T09:38:25.276Z,98544.42
2018-08-06T09:40:53.814Z,98542.65
2018-08-06T09:43:22.339Z,98541.18
2018-08-06T09:45:50.797Z,98538.72
2018-08-06T09:48:19.313Z,98529.69
2018-08-06T09:50:47.820Z,98536.44
2018-08-06T09:53:16.277Z,98530.94
2018-08-06T09:55:44.693Z,98527.78
2018-08-06T09:58:13.382Z,98527.67
2018-08-06T10:00:46.070Z,98526.73
2018-08-06T10:03:14.651Z,98526.30
2018-08-06T10:05:43.417Z,98526.42
2018-08-06T10:08:12.213Z,98517.64
2018-08-06T10:10:40.673Z,98521.37
2018-08-06T10:13:09.587Z,98508.53
2018-08-06T10:15:38.101Z,98512.17
2018-08-06T10:18:06.661Z,98512.17
2018-08-06T10:20:35.166Z,98507.08
2018-08-06T10:23:03.741Z,98505.69
2018-08-06T10:25:32.303Z,98490.63
2018-08-06T10:28:00.882Z,98494.05
2018-08-06T10:30:29.352Z,98496.62
2018-08-06T10:32:57.810Z,98498.19
2018-08-06T10:35:26.247Z,98498.03
2018-08-06T10:37:54.741Z,98490.27
2018-08-06T10:40:24.197Z,98491.30
2018-08-06T10:42:52.910Z,98490.69
2018-08-06T10:45:24.585Z,98483.98
2018-08-06T10:47:53.660Z,98474.95
2018-08-06T10:50:22.105Z,98478.20
2018-08-06T10:52:50.814Z,98467.91
2018-08-06T10:55:19.350Z,98466.56
2018-08-06T10:57:47.805Z,98469.86
2018-08-06T11:00:18.445Z,98473.77
2018-08-06T11:02:47.360Z,98464.95
2018-08-06T11:05:16.741Z,98464.08
2018-08-06T11:07:45.272Z,98462.02
2018-08-06T11:10:18.042Z,98464.19
2018-08-06T11:12:46.541Z,98458.48
2018-08-06T11:15:17.294Z,98451.41
2018-08-06T11:17:45.929Z,98448.95
2018-08-06T11:20:15.520Z,98446.88
2018-08-06T11:22:44.018Z,98446.44
2018-08-06T11:25:16.024Z,98442.72
2018-08-06T11:27:44.533Z,98447.55
2018-08-06T11:30:17.427Z,98440.27
2018-08-06T11:32:46.710Z,98437.15
2018-08-06T11:35:15.861Z,98435.41
2018-08-06T11:37:44.381Z,98438.59
2018-08-06T11:40:14.258Z,98432.00
2018-08-06T11:42:43.501Z,98427.47
2018-08-06T11:45:15.485Z,98432.89
2018-08-06T11:47:44.093Z,98422.87
2018-08-06T11:50:13.589Z,98429.11
2018-08-06T11:52:42.243Z,98421.73
2018-08-06T11:55:11.377Z,98425.38
2018-08-06T11:57:39.893Z,98420.22
2018-08-06T12:00:13.797Z,98411.62
2018-08-06T12:02:42.293Z,98403.88
2018-08-06T12:05:11.228Z,98403.50
2018-08-06T12:07:39.776Z,98402.58
2018-08-06T12:10:11.238Z,98392.54
2018-08-06T12:12:39.805Z,98398.98
2018-08-06T12:15:09.672Z,98390.95
2018-08-06T12:17:38.833Z,98394.53
2018-08-06T12:20:11.154Z,98390.17
2018-08-06T12:22:40.718Z,98388.22
2018-08-06T12:25:11.946Z,98389.26
2018-08-06T12:27:40.653Z,98384.58
2018-08-06T12:30:13.546Z,98382.14
2018-08-06T12:32:42.620Z,98383.80
2018-08-06T12:35:11.595Z,98381.77
2018-08-06T12:37:40.166Z,98375.23
2018-08-06T12:40:11.661Z,98378.20
2018-08-06T12:42:40.233Z,98365.66
2018-08-06T12:45:10.272Z,98359.92
2018-08-06T12:47:39.379Z,98364.00
2018-08-06T12:50:09.360Z,98365.03
2018-08-06T12:52:38.289Z,98350.81
2018-08-06T12:55:08.170Z,98347.83
2018-08-06T12:57:36.885Z,98356.70
2018-08-06T13:00:08.851Z,98347.73
2018-08-06T13:02:37.366Z,98355.48
2018-08-06T13:05:06.225Z,98342.04
2018-08-06T13:07:34.666Z,98339.05
2018-08-06T13:10:03.130Z,98336.31
2018-08-06T13:12:31.629Z,98333.23
2018-08-06T13:15:00.055Z,98331.92
2018-08-06T13:17:28.574Z,98330.74
2018-08-06T13:19:57.002Z,98325.55
2018-08-06T13:22:25.525Z,98317.21
2018-08-06T13:24:54.149Z,98325.85
2018-08-06T13:27:22.570Z,98322.84
2018-08-06T13:29:51.050Z,98318.56
2018-08-06T13:32:19.617Z,98311.42
2018-08-06T13:34:48.094Z,98310.83
2018-08-06T13:37:16.660Z,98302.90
2018-08-06T13:39:45.165Z,98310.65
2018-08-06T13:42:13.772Z,98303.05
2018-08-06T13:44:42.414Z,98295.91
2018-08-06T13:47:11.500Z,98299.48
2018-08-06T13:49:40.046Z,98302.86
2018-08-06T13:52:08.769Z,98298.91
2018-08-06T13:54:37.234Z,98285.08
2018-08-06T13:57:05.762Z,98287.09
2018-08-06T13:59:35.309Z,98283.22
2018-08-06T14:02:03.873Z,98281.54
2018-08-06T14:04:32.389Z,98267.04
2018-08-06T14:07:00.880Z,98271.63
2018-08-06T14:09:29.343Z,98265.88
2018-08-06T14:11:57.769Z,98260.85
2018-08-06T14:14:26.315Z,98265.97
2018-08-06T14:16:54.912Z,98262.06
2018-08-06T14:19:23.409Z,98265.05
2018-08-06T14:21:51.990Z,98268.25
2018-08-06T14:24:20.442Z,98268.44
2018-08-06T14:26:48.897Z,98272.09
2018-08-06T14:29:17.402Z,98272.67
2018-08-06T14:31:45.917Z,98269.93
2018-08-06T14:34:14.426Z,98263.89
2018-08-06T14:36:42.795Z,98254.33
2018-08-06T14:39:12.821Z,98262.64
2018-08-06T14:41:41.679Z,98257.75
2018-08-06T14:44:10.945Z,98260.07
2018-08-06T14:46:39.982Z,98247.63
2018-08-06T14:49:09.581Z,98247.16
2018-08-06T14:51:38.127Z,98247.16
2018-08-06T14:54:06.686Z,98241.74
2018-08-06T14:56:35.201Z,98237.70
2018-08-06T14:59:03.707Z,98227.34
2018-08-06T15:01:32.155Z,98225.67
2018-08-06T15:04:00.675Z,98235.00
2018-08-06T15:06:29.110Z,98238.75
2018-08-06T15:08:57.630Z,98236.08
2018-08-06T15:11:26.137Z,98236.50
2018-08-06T15:13:54.573Z,98238.84
2018-08-06T15:16:23.191Z,98235.97
2018-08-06T15:18:51.663Z,98235.02
2018-08-06T15:21:20.113Z,98233.59
2018-08-06T15:23:48.643Z,98237.56
2018-08-06T15:26:17.215Z,98226.47
2018-08-06T15:28:45.761Z,98225.96
2018-08-06T15:31:14.242Z,98237.88
2018-08-06T15:33:42.738Z,98229.75
2018-08-06T15:36:11.561Z,98229.18
2018-08-06T15:38:40.020Z,98222.74
2018-08-06T15:41:08.836Z,98223.50
2018-08-06T15:43:37.439Z,98229.83
2018-08-06T15:46:05.886Z,98227.02
2018-08-06T15:48:34.448Z,98227.03
2018-08-06T15:51:02.917Z,98229.20
2018-08-06T15:53:31.413Z,98228.46
2018-08-06T15:55:59.877Z,98228.82
2018-08-06T15:58:28.396Z,98228.46
2018-08-06T16:00:56.819Z,98226.00
2018-08-06T16:03:25.360Z,98223.42
2018-08-06T16:05:53.857Z,98219.81
2018-08-06T16:08:22.346Z,98216.84
2018-08-06T16:10:50.740Z,98209.74
2018-08-06T16:13:19.245Z,98213.15
2018-08-06T16:15:47.763Z,98212.23
2018-08-06T16:18:16.237Z,98195.95
2018-08-06T16:20:44.753Z,98195.14
2018-08-06T16:23:13.640Z,98181.78
2018-08-06T16:25:42.229Z,98177.92
2018-08-06T16:28:11.426Z,98175.28
2018-08-06T16:30:40.001Z,98170.25
2018-08-06T16:33:08.788Z,98165.88
2018-08-06T16:35:37.689Z,98161.58
2018-08-06T16:38:06.312Z,98163.66
2018-08-06T16:40:34.801Z,98165.08
2018-08-06T16:43:03.429Z,98166.54
2018-08-06T16:45:32.025Z,98157.61
2018-08-06T16:48:00.567Z,98156.41
2018-08-06T16:50:29.166Z,98159.30
2018-08-06T16:52:57.789Z,98155.28
2018-08-06T16:55:26.353Z,98156.87
2018-08-06T16:57:54.893Z,98159.13
2018-08-06T17:00:23.693Z,98151.20
2018-08-06T17:02:53.042Z,98145.72
2018-08-06T17:05:21.613Z,98149.13
2018-08-06T17:07:50.945Z,98143.81
2018-08-06T17:10:20.846Z,98143.25
2018-08-06T17:12:51.752Z,98141.24
2018-08-06T17:15:21.113Z,98141.16
2018-08-06T17:17:51.005Z,98141.34
2018-08-06T17:20:21.021Z,98150.96
2018-08-06T17:22:50.401Z,98148.88
2018-08-06T17:25:19.061Z,98147.88
2018-08-06T17:27:47.591Z,98141.66
2018-08-06T17:30:16.689Z,98143.94
2018-08-06T17:32:45.785Z,98140.98
2018-08-06T17:35:14.982Z,98141.33
2018-08-06T17:37:43.504Z,98133.69
2018-08-06T17:40:14.817Z,98128.24
2018-08-06T17:42:43.448Z,98135.86
2018-08-06T17:45:15.090Z,98138.42
2018-08-06T17:47:43.553Z,98147.66
2018-08-06T17:50:14.723Z,98144.67
2018-08-06T17:52:44.049Z,98156.20
2018-08-06T17:55:12.909Z,98158.22
2018-08-06T17:57:41.314Z,98160.52
2018-08-06T18:00:10.452Z,98161.16
2018-08-06T18:02:38.992Z,98154.34
2018-08-06T18:05:09.625Z,98150.22
2018-08-06T18:07:38.249Z,98151.13
2018-08-06T18:10:08.657Z,98158.30
2018-08-06T18:12:37.220Z,98161.09
2018-08-06T18:15:06.131Z,98158.34
2018-08-06T18:17:34.728Z,98156.99
2018-08-06T18:20:03.402Z,98154.25
2018-08-06T18:22:31.958Z,98159.55
2018-08-06T18:25:00.557Z,98156.52
2018-08-06T18:27:29.053Z,98162.59
2018-08-06T18:29:57.565Z,98157.61
2018-08-06T18:32:26.206Z,98164.54
2018-08-06T18:34:54.643Z,98168.44
2018-08-06T18:37:23.183Z,98190.86
2018-08-06T18:39:51.697Z,98193.91
2018-08-06T18:42:20.182Z,98192.52
2018-08-06T18:44:48.704Z,98193.59
2018-08-06T18:47:17.186Z,98196.60
2018-08-06T18:49:45.614Z,98197.68
2018-08-06T18:52:14.239Z,98197.15
2018-08-06T18:54:42.709Z,98198.79
2018-08-06T18:57:11.577Z,98199.89
2018-08-06T18:59:40.006Z,98201.26
2018-08-06T19:02:08.549Z,98201.79
2018-08-06T19:04:37.057Z,98197.34
2018-08-06T19:07:05.581Z,98187.63
2018-08-06T19:09:34.146Z,98192.30
2018-08-06T19:12:07.978Z,98198.02
2018-08-06T19:14:36.500Z,98201.32
2018-08-06T19:17:05.001Z,98204.00
2018-08-06T19:19:33.453Z,98211.64
2018-08-06T19:22:01.949Z,98228.13
2018-08-06T19:24:35.703Z,98230.54
2018-08-06T19:27:04.269Z,98237.40
2018-08-06T19:29:32.842Z,98248.97
2018-08-06T19:32:01.370Z,98253.95
2018-08-06T19:34:29.858Z,98256.45
2018-08-06T19:37:03.746Z,98256.95
2018-08-06T19:39:32.257Z,98256.86
2018-08-06T19:42:00.790Z,98258.45
2018-08-06T19:44:29.257Z,98264.31
2018-08-06T19:46:57.765Z,98263.02
2018-08-06T19:49:31.425Z,98265.61
2018-08-06T19:52:00.043Z,98269.30
2018-08-06T19:54:28.533Z,98268.74
2018-08-06T19:56:56.997Z,98271.64
2018-08-06T19:59:25.558Z,98268.23
2018-08-06T20:01:53.961Z,98278.70
2018-08-06T20:04:22.445Z,98277.33
2018-08-06T20:06:50.922Z,98280.08
2018-08-06T20:09:19.413Z,98285.30
2018-08-06T20:11:47.849Z,98275.25
2018-08-06T20:14:16.376Z,98275.42
2018-08-06T20:16:44.842Z,98276.73
2018-08-06T20:19:13.706Z,98284.78
2018-08-06T20:21:42.202Z,98276.98
2018-08-06T20:24:11.206Z,98284.06
2018-08-06T20:26:39.653Z,98279.04
2018-08-06T20:29:08.173Z,98286.78
2018-08-06T20:31:36.641Z,98283.27
2018-08-06T20:34:05.167Z,98276.29
2018-08-06T20:36:33.718Z,98271.06
2018-08-06T20:39:02.215Z,98277.91
2018-08-06T20:41:30.674Z,98273.23
2018-08-06T20:43:59.748Z,98276.29
2018-08-06T20:46:28.325Z,98278.08
2018-08-06T20:48:56.833Z,98278.83
2018-08-06T20:51:25.341Z,98276.84
2018-08-06T20:53:53.819Z,98276.53
2018-08-06T20:56:22.279Z,98273.94
2018-08-06T20:58:50.750Z,98278.31
2018-08-06T21:01:19.269Z,98269.59
2018-08-06T21:03:47.769Z,98268.10
2018-08-06T21:06:16.176Z,98267.98
2018-08-06T21:08:44.697Z,98266.53
2018-08-06T21:11:13.707Z,98267.86
2018-08-06T21:13:42.210Z,98271.79
2018-08-06T21:16:11.270Z,98265.39
2018-08-06T21:18:39.745Z,98263.19
2018-08-06T21:21:08.205Z,98264.56
2018-08-06T21:23:36.799Z,98271.16
2018-08-06T21:26:05.825Z,98272.14
2018-08-06T21:28:34.349Z,98280.16
2018-08-06T21:31:02.809Z,98271.86
2018-08-06T21:33:31.420Z,98278.20
2018-08-06T21:35:59.893Z,98286.41
2018-08-06T21:38:28.443Z,98283.88
2018-08-06T21:40:56.877Z,98279.58
2018-08-06T21:43:25.366Z,98280.09
2018-08-06T21:45:53.833Z,98282.89
2018-08-06T21:48:22.305Z,98281.34
2018-08-06T21:50:50.801Z,98284.52
2018-08-06T21:53:19.361Z,98281.31
2018-08-06T21:55:47.822Z,98283.01
2018-08-06T21:58:16.341Z,98288.91
2018-08-06T22:00:44.841Z,98276.08
2018-08-06T22:03:14.705Z,98283.03
2018-08-06T22:05:43.509Z,98277.73
2018-08-06T22:08:14.933Z,98278.98
2018-08-06T22:10:43.418Z,98273.17
2018-08-06T22:13:12.341Z,98280.98
2018-08-06T22:15:40.902Z,98288.59
2018-08-06T22:18:12.625Z,98283.73
2018-08-06T22:20:41.439Z,98283.34
2018-08-06T22:23:10.299Z,98288.48
2018-08-06T22:25:39.013Z,98285.64
2018-08-06T22:28:09.522Z,98280.92
2018-08-06T22:30:38.022Z,98279.91
2018-08-06T22:33:06.530Z,98278.44
2018-08-06T22:35:35.110Z,98286.27
2018-08-06T22:38:03.674Z,98278.05
2018-08-06T22:40:32.090Z,98283.39
2018-08-06T22:43:00.605Z,98279.00
2018-08-06T22:45:29.088Z,98279.45
2018-08-06T22:47:57.548Z,98286.15
2018-08-06T22:50:26.022Z,98287.47
2018-08-06T22:52:55.157Z,98292.41
2018-08-06T22:55:23.654Z,98293.66
2018-08-06T22:57:52.108Z,98293.89
2018-08-06T23:00:20.789Z,98290.75
2018-08-06T23:02:49.257Z,98290.80
2018-08-06T23:05:17.713Z,98288.94
2018-08-06T23:07:46.576Z,98292.08
2018-08-06T23:10:16.836Z,98292.78
2018-08-06T23:12:45.413Z,98286.46
2018-08-06T23:15:15.489Z,98279.02
2018-08-06T23:17:44.624Z,98277.47
2018-08-06T23:20:13.474Z,98281.41
2018-08-06T23:22:42.212Z,98271.94
2018-08-06T23:25:11.421Z,98279.02
2018-08-06T23:27:40.196Z,98280.59
2018-08-06T23:30:12.666Z,98279.16
2018-08-06T23:32:41.558Z,98275.10
2018-08-06T23:35:11.822Z,98280.85
2018-08-06T23:37:41.698Z,98286.34
2018-08-06T23:40:11.678Z,98285.57
2018-08-06T23:42:40.913Z,98276.03
2018-08-06T23:45:11.229Z,98275.20
2018-08-06T23:47:40.437Z,98278.59
2018-08-06T23:50:11.786Z,98271.80
2018-08-06T23:52:41.610Z,98274.55
2018-08-06T23:55:11.798Z,98276.42
2018-08-06T23:57:40.225Z,98275.03
